Thunderstorms From: 20-05-2018 15:00 Until: 21-05-2018 15:00 warning for: Thunderstorms Level: Yellow info button

Although rather usual in this region, locally or potentially dangerous phenomena are expected. (such as local winds, summer thunderstorms, rising streams or high waves) Be aware and pay attention to the latest weather updates, especially if you carry out activities exposed to weather or close to a stream or shoreline. 


Meteo18 Weather Cam more information Meteo18 Weather Cam


warning for Thunderstorms more information blitzortung!


Rain radar more information rain snow radar


Visit our other weather sites:

Template documentation
and downloads

And another site



Weather Underground History page Text

Daily Summary for January 28, 2018 Units:  English    Metric   Both
« Previous Day
Next Day »
Daily Weekly Monthly Yearly Custom
  High: Low: Average:
Temperature: TemperatureC °F -0.1 °F 3.8 °F
Dew Point: DewpointC °F -0.4 °F 3.5 °F
Humidity: Humidity % 97 % 98 %
Wind Speed: WindSpeedKMH mph 0.0 mph 5.1 mph
Wind Gust: WindSpeedGustKMH mph - -
Wind:- - SW
Pressure: PressurehPa in 1037.1 in -
Precipitation: 0.0 in    
Historical Graphs
 
 
Tabular Data for January 28, 2018
Time Temperature Dew Point Pressure Wind Wind Speed Wind Gust Humidity Rainfall Rate (Hourly)
TemperatureC °F DewpointC °F PressurehPa in Calm     Humidity % HourlyPrecipMM in
00:02 0.3 °F 0.0 °F 1037.5 in SSW 4.7 mph 6.4 mph 98 % 0.0 in
00:08 0.2 °F -0.1 °F 1037.5 in WSW 3.2 mph 4.8 mph 98 % 0.0 in
00:14 0.1 °F -0.3 °F 1037.1 in SW 3.2 mph 8.0 mph 97 % 0.0 in
00:21 0.1 °F -0.3 °F 1037.1 in WSW 1.4 mph 6.4 mph 97 % 0.0 in
00:27 0.2 °F -0.1 °F 1037.1 in WSW 6.4 mph 8.0 mph 98 % 0.0 in
00:33 0.2 °F -0.1 °F 1037.5 in SW 3.2 mph 6.4 mph 98 % 0.0 in
00:39 0.1 °F -0.2 °F 1037.5 in SW 3.2 mph 6.4 mph 98 % 0.0 in
00:45 0.2 °F -0.1 °F 1037.5 in SSW 3.2 mph 6.4 mph 98 % 0.0 in
00:51 0.2 °F -0.1 °F 1037.1 in SSW 3.2 mph 6.4 mph 98 % 0.0 in
00:57 0.2 °F -0.1 °F 1037.1 in SW 1.4 mph 6.4 mph 98 % 0.0 in
01:03 0.2 °F -0.1 °F 1037.5 in SW 3.2 mph 6.4 mph 98 % 0.0 in
01:09 0.3 °F 0.0 °F 1037.5 in SSW 6.4 mph 11.3 mph 98 % 0.0 in
01:15 0.1 °F -0.2 °F 1037.5 in SSW 6.4 mph 9.7 mph 98 % 0.0 in
01:21 0.1 °F -0.2 °F 1037.5 in SSW 4.7 mph 8.0 mph 98 % 0.0 in
01:27 0.1 °F -0.2 °F 1037.1 in SSW 4.7 mph 8.0 mph 98 % 0.0 in
01:33 0.0 °F -0.3 °F 1037.1 in SW 4.7 mph 8.0 mph 98 % 0.0 in
01:39 -0.1 °F -0.4 °F 1037.1 in SW 3.2 mph 6.4 mph 98 % 0.0 in
01:45 0.0 °F -0.3 °F 1037.1 in SSW 1.4 mph 8.0 mph 98 % 0.0 in
01:51 0.1 °F -0.2 °F 1037.1 in SSE 4.7 mph 6.4 mph 98 % 0.0 in
01:57 0.1 °F -0.2 °F 1037.1 in SSW 6.4 mph 6.4 mph 98 % 0.0 in
02:03 0.1 °F -0.2 °F 1037.1 in SSW 6.4 mph 6.4 mph 98 % 0.0 in
02:09 0.1 °F -0.2 °F 1037.1 in SW 4.7 mph 8.0 mph 98 % 0.0 in
02:15 0.2 °F -0.1 °F 1037.1 in SSW 1.4 mph 8.0 mph 98 % 0.0 in
02:21 0.2 °F -0.1 °F 1037.5 in SSW 1.4 mph 4.8 mph 98 % 0.0 in
02:27 0.3 °F 0.0 °F 1037.5 in SSW 1.4 mph 6.4 mph 98 % 0.0 in
02:33 0.3 °F 0.0 °F 1037.5 in SSW 6.4 mph 6.4 mph 98 % 0.0 in
02:39 0.3 °F 0.0 °F 1037.1 in South 6.4 mph 8.0 mph 98 % 0.0 in
02:45 0.3 °F 0.0 °F 1037.5 in SSW 4.7 mph 4.8 mph 98 % 0.0 in
02:51 0.3 °F 0.0 °F 1037.5 in SW 1.4 mph 4.8 mph 98 % 0.0 in
02:57 0.3 °F 0.0 °F 1037.5 in SW 6.4 mph 8.0 mph 98 % 0.0 in
03:03 0.3 °F 0.0 °F 1037.8 in SW 3.2 mph 6.4 mph 98 % 0.0 in
03:09 0.2 °F -0.1 °F 1037.8 in SSW 1.4 mph 4.8 mph 98 % 0.0 in
03:15 0.2 °F -0.1 °F 1037.8 in SSW 4.7 mph 6.4 mph 98 % 0.0 in
03:21 0.2 °F -0.1 °F 1037.8 in SW 4.7 mph 4.8 mph 98 % 0.0 in
03:27 0.3 °F 0.0 °F 1037.8 in SW 1.4 mph 3.2 mph 98 % 0.0 in
03:33 0.3 °F 0.0 °F 1037.8 in SSW 4.7 mph 8.0 mph 98 % 0.0 in
03:39 0.2 °F -0.1 °F 1037.8 in SSW 7.9 mph 11.3 mph 98 % 0.0 in
03:45 0.2 °F -0.1 °F 1037.8 in SSW 4.7 mph 9.7 mph 98 % 0.0 in
03:51 0.2 °F -0.1 °F 1037.8 in SW 7.9 mph 11.3 mph 98 % 0.0 in
03:57 0.2 °F -0.1 °F 1037.8 in SSW 6.4 mph 9.7 mph 98 % 0.0 in
04:03 0.1 °F -0.2 °F 1037.5 in SSW 7.9 mph 9.7 mph 98 % 0.0 in
04:09 0.2 °F -0.1 °F 1037.5 in SW 9.7 mph 11.3 mph 98 % 0.0 in
04:15 0.2 °F -0.1 °F 1037.5 in SSW 7.9 mph 8.0 mph 98 % 0.0 in
04:21 0.2 °F -0.1 °F 1037.5 in SW 4.7 mph 9.7 mph 98 % 0.0 in
04:27 0.3 °F 0.0 °F 1037.5 in SW 3.2 mph 6.4 mph 98 % 0.0 in
04:33 0.3 °F 0.0 °F 1037.8 in SSW 4.7 mph 6.4 mph 98 % 0.0 in
04:39 0.2 °F -0.1 °F 1037.8 in SSW 4.7 mph 8.0 mph 98 % 0.0 in
04:45 0.3 °F 0.0 °F 1037.8 in SSW 6.4 mph 9.7 mph 98 % 0.0 in
04:51 0.2 °F -0.1 °F 1037.8 in SSW 7.9 mph 12.9 mph 98 % 0.0 in
04:57 0.3 °F 0.0 °F 1037.8 in SSW 11.1 mph 12.9 mph 98 % 0.0 in
05:03 0.3 °F 0.0 °F 1037.8 in SSW 11.1 mph 11.3 mph 98 % 0.0 in
05:09 0.3 °F 0.0 °F 1037.8 in SSW 6.4 mph 9.7 mph 98 % 0.0 in
05:15 0.3 °F 0.0 °F 1037.8 in SSW 7.9 mph 11.3 mph 98 % 0.0 in
05:21 0.4 °F 0.1 °F 1037.8 in SW 6.4 mph 9.7 mph 98 % 0.0 in
05:27 0.4 °F 0.1 °F 1037.8 in SSW 7.9 mph 9.7 mph 98 % 0.0 in
05:33 0.4 °F 0.1 °F 1037.8 in SW 11.1 mph 11.3 mph 98 % 0.0 in
05:39 0.4 °F 0.1 °F 1037.8 in SW 6.4 mph 11.3 mph 98 % 0.0 in
05:45 0.4 °F 0.1 °F 1038.1 in SSW 9.7 mph 11.3 mph 98 % 0.0 in
05:51 0.5 °F 0.2 °F 1038.1 in SSW 7.9 mph 9.7 mph 98 % 0.0 in
05:57 0.5 °F 0.2 °F 1038.1 in SW 9.7 mph 9.7 mph 98 % 0.0 in
06:03 0.6 °F 0.3 °F 1038.1 in SW 7.9 mph 8.0 mph 98 % 0.0 in
06:09 0.6 °F 0.3 °F 1038.1 in SSW 3.2 mph 6.4 mph 98 % 0.0 in
06:15 0.6 °F 0.3 °F 1038.1 in SSW 11.1 mph 11.3 mph 98 % 0.0 in
06:21 0.6 °F 0.3 °F 1038.1 in SSW 11.1 mph 11.3 mph 98 % 0.0 in
06:27 0.7 °F 0.4 °F 1038.1 in SSW 4.7 mph 11.3 mph 98 % 0.0 in
06:33 0.7 °F 0.4 °F 1038.1 in SSW 6.4 mph 12.9 mph 98 % 0.0 in
06:39 0.7 °F 0.4 °F 1038.1 in SSW 7.9 mph 12.9 mph 98 % 0.0 in
06:45 0.8 °F 0.5 °F 1038.1 in SW 7.9 mph 14.5 mph 98 % 0.0 in
06:51 0.8 °F 0.5 °F 1038.1 in SSW 7.9 mph 12.9 mph 98 % 0.0 in
06:57 0.9 °F 0.6 °F 1038.1 in SSW 6.4 mph 9.7 mph 98 % 0.0 in
07:03 0.9 °F 0.6 °F 1038.1 in SSW 4.7 mph 9.7 mph 98 % 0.0 in
07:09 0.9 °F 0.6 °F 1038.5 in SSW 4.7 mph 8.0 mph 98 % 0.0 in
07:15 0.9 °F 0.6 °F 1038.5 in SW 7.9 mph 8.0 mph 98 % 0.0 in
07:21 1.0 °F 0.7 °F 1038.5 in SSW 6.4 mph 6.4 mph 98 % 0.0 in
07:27 1.1 °F 0.8 °F 1038.5 in SSW 3.2 mph 6.4 mph 98 % 0.0 in
07:33 1.1 °F 0.8 °F 1038.5 in SSW 7.9 mph 9.7 mph 98 % 0.0 in
07:39 1.2 °F 0.9 °F 1038.5 in SSW 4.7 mph 6.4 mph 98 % 0.0 in
07:45 1.2 °F 0.9 °F 1038.5 in SSW 3.2 mph 9.7 mph 98 % 0.0 in
07:51 1.2 °F 0.9 °F 1038.5 in SSW 4.7 mph 9.7 mph 98 % 0.0 in
07:57 1.2 °F 0.9 °F 1038.5 in SSW 4.7 mph 8.0 mph 98 % 0.0 in
08:03 1.3 °F 1.0 °F 1038.5 in SW 3.2 mph 4.8 mph 98 % 0.0 in
08:09 1.3 °F 1.0 °F 1038.5 in SW 4.7 mph 6.4 mph 98 % 0.0 in
08:15 1.3 °F 1.0 °F 1038.8 in SSW 4.7 mph 6.4 mph 98 % 0.0 in
08:21 1.3 °F 1.0 °F 1038.8 in SSW 4.7 mph 4.8 mph 98 % 0.0 in
08:27 1.4 °F 1.1 °F 1038.8 in SSW 4.7 mph 8.0 mph 98 % 0.0 in
08:33 1.4 °F 1.1 °F 1038.8 in SW 4.7 mph 8.0 mph 98 % 0.0 in
08:39 1.4 °F 1.1 °F 1038.8 in SSW 7.9 mph 11.3 mph 98 % 0.0 in
08:45 1.5 °F 1.2 °F 1038.8 in SSW 6.4 mph 9.7 mph 98 % 0.0 in
08:51 1.6 °F 1.3 °F 1038.8 in SW 7.9 mph 11.3 mph 98 % 0.0 in
08:57 1.6 °F 1.3 °F 1039.2 in SSW 6.4 mph 9.7 mph 98 % 0.0 in
09:03 1.7 °F 1.4 °F 1039.2 in SW 7.9 mph 9.7 mph 98 % 0.0 in
09:09 1.8 °F 1.5 °F 1039.2 in SW 9.7 mph 9.7 mph 98 % 0.0 in
09:15 1.8 °F 1.5 °F 1039.2 in SSW 4.7 mph 8.0 mph 98 % 0.0 in
09:21 1.9 °F 1.6 °F 1039.5 in SW 7.9 mph 11.3 mph 98 % 0.0 in
09:27 1.9 °F 1.6 °F 1039.5 in SSW 6.4 mph 11.3 mph 98 % 0.0 in
09:33 2.0 °F 1.7 °F 1039.5 in SSW 1.4 mph 6.4 mph 98 % 0.0 in
09:39 2.1 °F 1.8 °F 1039.5 in SSW 7.9 mph 9.7 mph 98 % 0.0 in
09:46 2.2 °F 1.9 °F 1039.5 in SSW 4.7 mph 9.7 mph 98 % 0.0 in
09:51 2.2 °F 1.9 °F 1039.5 in SW 6.4 mph 14.5 mph 98 % 0.0 in
09:57 2.4 °F 2.1 °F 1039.5 in SSW 9.7 mph 12.9 mph 98 % 0.0 in
10:03 2.4 °F 2.1 °F 1039.5 in SSW 3.2 mph 11.3 mph 98 % 0.0 in
10:09 2.5 °F 2.2 °F 1039.5 in SW 6.4 mph 11.3 mph 98 % 0.0 in
10:15 2.6 °F 2.3 °F 1039.5 in SSW 9.7 mph 9.7 mph 98 % 0.0 in
10:21 2.7 °F 2.4 °F 1039.5 in SW 11.1 mph 16.1 mph 98 % 0.0 in
10:27 2.9 °F 2.6 °F 1039.5 in SSW 3.2 mph 11.3 mph 98 % 0.0 in
10:33 2.9 °F 2.6 °F 1039.5 in SW 6.4 mph 9.7 mph 98 % 0.0 in
10:39 2.9 °F 2.6 °F 1039.5 in SW 14.3 mph 16.1 mph 98 % 0.0 in
10:46 3.0 °F 2.7 °F 1039.8 in SW 6.4 mph 12.9 mph 98 % 0.0 in
10:52 3.1 °F 2.8 °F 1039.8 in WSW 6.4 mph 11.3 mph 98 % 0.0 in
10:58 3.1 °F 2.8 °F 1039.8 in South 1.4 mph 9.7 mph 98 % 0.0 in
11:04 3.2 °F 2.9 °F 1039.8 in SSW 7.9 mph 12.9 mph 98 % 0.0 in
11:10 3.3 °F 3.0 °F 1039.5 in SW 7.9 mph 16.1 mph 98 % 0.0 in
11:16 3.3 °F 3.0 °F 1039.8 in SSW 4.7 mph 14.5 mph 98 % 0.0 in
11:22 3.5 °F 3.2 °F 1039.8 in SSW 6.4 mph 12.9 mph 98 % 0.0 in
11:28 3.6 °F 3.3 °F 1039.8 in SW 6.4 mph 12.9 mph 98 % 0.0 in
11:34 3.7 °F 3.4 °F 1039.8 in SW 9.7 mph 12.9 mph 98 % 0.0 in
11:40 3.7 °F 3.4 °F 1039.8 in SW 3.2 mph 11.3 mph 98 % 0.0 in
11:46 3.9 °F 3.6 °F 1039.8 in SW 9.7 mph 12.9 mph 98 % 0.0 in
11:52 3.9 °F 3.6 °F 1039.8 in SSW 6.4 mph 11.3 mph 98 % 0.0 in
11:58 4.1 °F 3.8 °F 1039.8 in SW 7.9 mph 11.3 mph 98 % 0.0 in
12:04 4.1 °F 3.8 °F 1039.8 in SSW 7.9 mph 14.5 mph 98 % 0.0 in
12:10 4.2 °F 3.9 °F 1039.8 in SW 7.9 mph 14.5 mph 98 % 0.0 in
12:16 4.3 °F 4.0 °F 1039.8 in SW 9.7 mph 16.1 mph 98 % 0.0 in
12:22 4.3 °F 4.0 °F 1039.5 in SSW 13.0 mph 17.7 mph 98 % 0.0 in
12:28 4.4 °F 4.1 °F 1039.5 in SSW 13.0 mph 13.0 mph 98 % 0.0 in
12:34 4.4 °F 4.1 °F 1039.5 in SSW 9.7 mph 16.1 mph 98 % 0.0 in
12:40 4.6 °F 4.3 °F 1039.5 in SSW 9.7 mph 12.9 mph 98 % 0.0 in
12:46 4.6 °F 4.3 °F 1039.5 in SW 7.9 mph 12.9 mph 98 % 0.0 in
12:52 4.7 °F 4.4 °F 1039.5 in SSW 6.4 mph 8.0 mph 98 % 0.0 in
12:58 4.8 °F 4.5 °F 1039.5 in SW 7.9 mph 12.9 mph 98 % 0.0 in
13:04 4.9 °F 4.6 °F 1039.2 in SW 9.7 mph 11.3 mph 98 % 0.0 in
13:10 5.1 °F 4.8 °F 1039.2 in SW 6.4 mph 9.7 mph 98 % 0.0 in
13:16 5.2 °F 4.9 °F 1039.2 in SSW 4.7 mph 9.7 mph 98 % 0.0 in
13:22 5.3 °F 5.0 °F 1039.2 in WSW 9.7 mph 12.9 mph 98 % 0.0 in
13:28 5.4 °F 5.1 °F 1039.2 in SW 7.9 mph 14.5 mph 98 % 0.0 in
13:34 5.5 °F 5.2 °F 1039.2 in SW 6.4 mph 12.9 mph 98 % 0.0 in
13:40 5.6 °F 5.3 °F 1039.2 in SW 7.9 mph 9.7 mph 98 % 0.0 in
13:46 5.7 °F 5.4 °F 1039.2 in WSW 6.4 mph 8.0 mph 98 % 0.0 in
13:52 5.8 °F 5.5 °F 1039.2 in SW 9.7 mph 11.3 mph 98 % 0.0 in
13:58 5.8 °F 5.5 °F 1039.2 in SW 4.7 mph 11.3 mph 98 % 0.0 in
14:04 5.9 °F 5.6 °F 1039.2 in WSW 3.2 mph 4.8 mph 98 % 0.0 in
14:10 5.9 °F 5.6 °F 1039.2 in SW 6.4 mph 8.0 mph 98 % 0.0 in
14:16 6.0 °F 5.7 °F 1039.2 in WSW 6.4 mph 8.0 mph 98 % 0.0 in
14:22 6.1 °F 5.8 °F 1039.2 in WSW 1.4 mph 1.6 mph 98 % 0.0 in
14:28 6.2 °F 5.9 °F 1039.2 in SW 1.4 mph 4.8 mph 98 % 0.0 in
14:34 6.2 °F 5.9 °F 1039.2 in SW 3.2 mph 6.4 mph 98 % 0.0 in
14:40 6.2 °F 5.9 °F 1038.8 in SW 1.4 mph 4.8 mph 98 % 0.0 in
14:46 6.2 °F 5.9 °F 1038.8 in SW 3.2 mph 4.8 mph 98 % 0.0 in
14:52 6.3 °F 6.0 °F 1038.8 in WSW 3.2 mph 9.7 mph 98 % 0.0 in
14:58 6.3 °F 6.0 °F 1038.8 in WSW 1.4 mph 6.4 mph 98 % 0.0 in
15:04 6.3 °F 6.0 °F 1038.8 in SW 4.7 mph 6.4 mph 98 % 0.0 in
15:10 6.4 °F 6.1 °F 1038.8 in Calm   4.8 mph 98 % 0.0 in
15:16 6.5 °F 6.2 °F 1038.8 in WSW 1.4 mph 6.4 mph 98 % 0.0 in
15:22 6.6 °F 6.3 °F 1038.8 in SW 1.4 mph 3.2 mph 98 % 0.0 in
15:28 6.6 °F 6.3 °F 1038.8 in SW 4.7 mph 6.4 mph 98 % 0.0 in
15:34 6.6 °F 6.3 °F 1038.8 in WSW 6.4 mph 8.0 mph 98 % 0.0 in
15:40 6.6 °F 6.3 °F 1038.8 in SW 4.7 mph 8.0 mph 98 % 0.0 in
15:46 6.6 °F 6.3 °F 1038.8 in SW 6.4 mph 8.0 mph 98 % 0.0 in
15:52 6.7 °F 6.4 °F 1038.8 in WSW 3.2 mph 6.4 mph 98 % 0.0 in
15:58 6.7 °F 6.4 °F 1038.8 in SW 7.9 mph 8.0 mph 98 % 0.0 in
16:04 6.8 °F 6.5 °F 1038.5 in WSW 1.4 mph 8.0 mph 98 % 0.0 in
16:10 6.8 °F 6.5 °F 1038.8 in SW 3.2 mph 4.8 mph 98 % 0.0 in
16:16 6.9 °F 6.6 °F 1038.8 in WSW 1.4 mph 3.2 mph 98 % 0.0 in
16:22 6.9 °F 6.6 °F 1038.5 in WSW 9.7 mph 9.7 mph 98 % 0.0 in
16:28 6.9 °F 6.6 °F 1038.5 in WSW 6.4 mph 8.0 mph 98 % 0.0 in
16:34 6.9 °F 6.6 °F 1038.5 in SW 1.4 mph 6.4 mph 98 % 0.0 in
16:40 7.0 °F 6.7 °F 1038.5 in SW 3.2 mph 4.8 mph 98 % 0.0 in
16:46 7.1 °F 6.8 °F 1038.5 in South 3.2 mph 4.8 mph 98 % 0.0 in
16:52 7.1 °F 6.8 °F 1038.8 in Calm   6.4 mph 98 % 0.0 in
16:58 7.1 °F 6.8 °F 1038.8 in SW 1.4 mph 4.8 mph 98 % 0.0 in
17:04 7.1 °F 6.8 °F 1038.8 in SW 3.2 mph 8.0 mph 98 % 0.0 in
17:10 7.1 °F 6.8 °F 1038.8 in WSW 7.9 mph 9.7 mph 98 % 0.0 in
17:16 7.1 °F 6.8 °F 1038.8 in SW 1.4 mph 6.4 mph 98 % 0.0 in
17:22 7.1 °F 6.8 °F 1038.8 in SW 1.4 mph 6.4 mph 98 % 0.0 in
17:28 7.1 °F 6.8 °F 1038.8 in Calm   4.8 mph 98 % 0.0 in
17:34 7.1 °F 6.8 °F 1038.8 in SW 4.7 mph 6.4 mph 98 % 0.0 in
17:40 7.1 °F 6.8 °F 1038.8 in Calm   8.0 mph 98 % 0.0 in
17:46 7.1 °F 6.8 °F 1038.8 in WSW 1.4 mph 6.4 mph 98 % 0.0 in
17:52 7.1 °F 6.8 °F 1038.8 in SW 4.7 mph 4.8 mph 98 % 0.0 in
17:58 7.1 °F 6.8 °F 1038.8 in Calm   3.2 mph 98 % 0.0 in
18:04 7.1 °F 6.8 °F 1038.8 in West 1.4 mph 3.2 mph 98 % 0.0 in
18:11 7.1 °F 6.8 °F 1038.8 in WSW 1.4 mph 4.8 mph 98 % 0.0 in
18:17 7.1 °F 6.8 °F 1039.2 in WSW 1.4 mph 3.2 mph 98 % 0.0 in
18:23 7.2 °F 6.9 °F 1039.2 in SW 1.4 mph 3.2 mph 98 % 0.0 in
18:29 7.2 °F 6.9 °F 1039.2 in Calm   3.2 mph 98 % 0.0 in
18:35 7.2 °F 6.9 °F 1038.8 in SSW 1.4 mph 4.8 mph 98 % 0.0 in
18:41 7.2 °F 6.9 °F 1039.2 in WSW 1.4 mph 4.8 mph 98 % 0.0 in
18:47 7.2 °F 6.9 °F 1039.2 in SW 1.4 mph 3.2 mph 98 % 0.0 in
18:53 7.2 °F 6.9 °F 1039.2 in SW 1.4 mph 3.2 mph 98 % 0.0 in
18:59 7.2 °F 6.9 °F 1039.2 in SW 1.4 mph 1.6 mph 98 % 0.0 in
19:05 7.2 °F 6.9 °F 1039.2 in SSW 3.2 mph 3.2 mph 98 % 0.0 in
19:11 7.2 °F 6.9 °F 1039.2 in SW 3.2 mph 3.2 mph 98 % 0.0 in
19:17 7.2 °F 6.9 °F 1039.2 in SSW 3.2 mph 4.8 mph 98 % 0.0 in
19:23 7.2 °F 6.9 °F 1039.2 in SW 1.4 mph 4.8 mph 98 % 0.0 in
19:29 7.2 °F 6.9 °F 1039.2 in SW 3.2 mph 3.2 mph 98 % 0.0 in
19:35 7.2 °F 6.9 °F 1039.2 in SW 1.4 mph 4.8 mph 98 % 0.0 in
19:41 7.2 °F 6.9 °F 1039.2 in West 1.4 mph 3.2 mph 98 % 0.0 in
19:47 7.2 °F 6.9 °F 1039.2 in SW 3.2 mph 4.8 mph 98 % 0.0 in
19:53 7.2 °F 6.9 °F 1039.2 in WSW 3.2 mph 6.4 mph 98 % 0.0 in
19:59 7.2 °F 6.9 °F 1039.2 in SW 3.2 mph 6.4 mph 98 % 0.0 in
20:05 7.2 °F 6.9 °F 1039.2 in WSW 1.4 mph 6.4 mph 98 % 0.0 in
20:11 7.2 °F 6.9 °F 1039.2 in WSW 3.2 mph 3.2 mph 98 % 0.0 in
20:17 7.2 °F 6.9 °F 1039.2 in SW 3.2 mph 6.4 mph 98 % 0.0 in
20:23 7.2 °F 6.9 °F 1039.2 in WSW 3.2 mph 6.4 mph 98 % 0.0 in
20:29 7.2 °F 6.9 °F 1039.2 in SW 1.4 mph 8.0 mph 98 % 0.0 in
20:35 7.2 °F 6.9 °F 1039.2 in WSW 3.2 mph 11.3 mph 98 % 0.0 in
20:41 7.2 °F 6.9 °F 1039.2 in WSW 1.4 mph 8.0 mph 98 % 0.0 in
20:47 7.2 °F 6.9 °F 1039.2 in WSW 3.2 mph 6.4 mph 98 % 0.0 in
20:53 7.2 °F 6.9 °F 1039.2 in Calm   4.8 mph 98 % 0.0 in
20:59 7.2 °F 6.9 °F 1039.2 in WSW 4.7 mph 9.7 mph 98 % 0.0 in
21:05 7.2 °F 6.9 °F 1039.2 in West 3.2 mph 6.4 mph 98 % 0.0 in
21:11 7.2 °F 6.9 °F 1039.2 in WSW 3.2 mph 6.4 mph 98 % 0.0 in
21:17 7.2 °F 6.9 °F 1039.2 in SW 4.7 mph 6.4 mph 98 % 0.0 in
21:23 7.2 °F 6.9 °F 1039.2 in SW 6.4 mph 9.7 mph 98 % 0.0 in
21:29 7.2 °F 6.9 °F 1039.5 in WSW 3.2 mph 8.0 mph 98 % 0.0 in
21:35 7.2 °F 6.9 °F 1039.2 in WSW 7.9 mph 9.7 mph 98 % 0.0 in
21:41 7.2 °F 6.9 °F 1039.2 in SW 6.4 mph 12.9 mph 98 % 0.0 in
21:47 7.2 °F 6.9 °F 1039.2 in West 4.7 mph 8.0 mph 98 % 0.0 in
21:55 7.2 °F 6.9 °F 1039.2 in South 4.7 mph 11.3 mph 98 % 0.0 in
22:01 7.2 °F 6.9 °F 1039.2 in SW 4.7 mph 11.3 mph 98 % 0.0 in
22:07 7.2 °F 6.9 °F 1039.2 in WSW 9.7 mph 11.3 mph 98 % 0.0 in
22:13 7.2 °F 6.9 °F 1038.8 in WSW 4.7 mph 11.3 mph 98 % 0.0 in
22:19 7.2 °F 6.9 °F 1038.8 in WSW 4.7 mph 8.0 mph 98 % 0.0 in
22:25 7.2 °F 6.9 °F 1038.8 in SSW 4.7 mph 8.0 mph 98 % 0.0 in
22:31 7.2 °F 6.9 °F 1038.8 in SSW 4.7 mph 9.7 mph 98 % 0.0 in
22:37 7.2 °F 6.9 °F 1038.8 in SW 11.1 mph 11.3 mph 98 % 0.0 in
22:43 7.2 °F 6.9 °F 1038.8 in SW 3.2 mph 6.4 mph 98 % 0.0 in
22:49 7.2 °F 6.9 °F 1038.8 in WSW 6.4 mph 8.0 mph 98 % 0.0 in
22:55 7.2 °F 6.9 °F 1038.8 in WSW 4.7 mph 6.4 mph 98 % 0.0 in
23:01 7.2 °F 6.9 °F 1038.8 in WSW 3.2 mph 8.0 mph 98 % 0.0 in
23:08 7.2 °F 6.9 °F 1038.8 in SW 4.7 mph 11.3 mph 98 % 0.0 in
23:13 7.2 °F 6.9 °F 1038.8 in SW 3.2 mph 8.0 mph 98 % 0.0 in
23:19 7.2 °F 6.9 °F 1038.8 in SW 11.1 mph 11.3 mph 98 % 0.0 in
23:25 7.2 °F 6.9 °F 1038.8 in SW 7.9 mph 8.0 mph 98 % 0.0 in
23:32 7.2 °F 6.9 °F 1038.8 in SW 4.7 mph 8.0 mph 98 % 0.0 in
23:37 7.2 °F 6.9 °F 1038.8 in SW 3.2 mph 4.8 mph 98 % 0.0 in
23:43 7.2 °F 6.9 °F 1038.5 in SW 1.4 mph 8.0 mph 98 % 0.0 in
23:49 7.2 °F 6.9 °F 1038.5 in SW 3.2 mph 8.0 mph 98 % 0.0 in
23:56 7.2 °F 6.9 °F 1038.5 in West 4.7 mph 14.5 mph 98 % 0.0 in
Meteo18
Compliments of Weather Underground - 4 mb

Script developed by  Jim McMurry - jmcmurry@mwt.net Adapted for the template by  Wim van der Kuil - Leuven-Template.eu

You find our weather info also at:

European Weather Network

Weather Underground

Equipment we use:

Weather-station
Davis Vue

Weather-program
Meteobridge

Weather-server
Raspberry PI 2 B+

Provider
1 and 1

Davis Vue

Meteobridge

Raspberry PI 2 B+

1 and 1